createdAt,value
2017-09-14T00:00:38.094Z,19.10
2017-09-14T00:03:05.546Z,19.00
2017-09-14T00:05:33.017Z,19.20
2017-09-14T00:08:00.473Z,19.20
2017-09-14T00:10:27.935Z,19.40
2017-09-14T00:12:55.395Z,19.30
2017-09-14T00:15:22.841Z,19.30
2017-09-14T00:17:50.306Z,19.30
2017-09-14T00:20:17.753Z,19.30
2017-09-14T00:22:45.210Z,19.30
2017-09-14T00:25:12.669Z,19.30
2017-09-14T00:27:40.137Z,19.30
2017-09-14T00:30:07.599Z,19.30
2017-09-14T00:32:35.060Z,19.30
2017-09-14T00:35:03.273Z,19.40
2017-09-14T00:37:30.766Z,19.40
2017-09-14T00:39:58.231Z,19.50
2017-09-14T00:42:25.697Z,19.50
2017-09-14T00:44:53.924Z,18.80
2017-09-14T00:47:21.378Z,18.80
2017-09-14T00:49:48.833Z,18.50
2017-09-14T00:52:16.319Z,18.40
2017-09-14T00:54:43.882Z,18.20
2017-09-14T00:57:11.349Z,18.10
2017-09-14T00:59:38.911Z,18.10
2017-09-14T01:02:06.368Z,17.70
2017-09-14T01:04:33.914Z,17.50
2017-09-14T01:07:01.475Z,17.30
2017-09-14T01:09:28.929Z,17.10
2017-09-14T01:11:56.390Z,16.90
2017-09-14T01:14:41.421Z,16.80
2017-09-14T01:17:08.877Z,16.80
2017-09-14T01:19:36.374Z,16.70
2017-09-14T01:22:03.833Z,16.60
2017-09-14T01:24:31.296Z,16.50
2017-09-14T01:26:58.752Z,16.40
2017-09-14T01:29:43.741Z,16.30
2017-09-14T01:32:12.078Z,15.90
2017-09-14T01:34:39.643Z,15.80
2017-09-14T01:37:07.113Z,15.70
2017-09-14T01:39:34.573Z,15.50
2017-09-14T01:42:02.017Z,15.30
2017-09-14T01:44:29.473Z,15.10
2017-09-14T01:46:56.921Z,15.00
2017-09-14T01:49:30.268Z,14.80
2017-09-14T01:51:57.709Z,14.60
2017-09-14T01:54:25.935Z,14.40
2017-09-14T01:56:53.389Z,14.40
2017-09-14T01:59:20.857Z,14.40
2017-09-14T02:01:48.401Z,14.30
2017-09-14T02:04:15.862Z,14.20
2017-09-14T02:06:43.314Z,14.20
2017-09-14T02:09:10.785Z,14.20
2017-09-14T02:11:38.230Z,14.10
2017-09-14T02:14:05.697Z,14.00
2017-09-14T02:16:33.147Z,13.90
2017-09-14T02:19:00.605Z,13.90
2017-09-14T02:21:28.071Z,13.80
2017-09-14T02:23:55.525Z,13.80
2017-09-14T02:26:22.978Z,13.70
2017-09-14T02:28:50.442Z,13.70
2017-09-14T02:31:17.899Z,13.60
2017-09-14T02:33:45.358Z,13.70
2017-09-14T02:36:12.810Z,13.60
2017-09-14T02:38:40.267Z,13.60
2017-09-14T02:41:07.709Z,13.60
2017-09-14T02:43:36.174Z,13.70
2017-09-14T02:46:03.617Z,13.60
2017-09-14T02:48:31.114Z,13.60
2017-09-14T02:50:58.676Z,13.50
2017-09-14T02:53:26.122Z,13.40
2017-09-14T02:55:54.616Z,13.40
2017-09-14T02:58:22.062Z,13.30
2017-09-14T03:00:49.526Z,13.20
2017-09-14T03:03:16.973Z,13.10
2017-09-14T03:05:44.433Z,12.90
2017-09-14T03:08:11.881Z,12.80
2017-09-14T03:10:39.342Z,12.70
2017-09-14T03:13:06.817Z,12.60
2017-09-14T03:15:34.390Z,12.60
2017-09-14T03:18:01.850Z,12.60
2017-09-14T03:20:29.303Z,12.60
2017-09-14T03:22:57.662Z,12.60
2017-09-14T03:25:25.223Z,12.60
2017-09-14T03:27:52.669Z,12.60
2017-09-14T03:30:20.135Z,12.60
2017-09-14T03:32:47.582Z,12.50
2017-09-14T03:35:15.033Z,12.40
2017-09-14T03:37:42.601Z,12.30
2017-09-14T03:40:10.049Z,12.20
2017-09-14T03:42:37.509Z,12.10
2017-09-14T03:45:04.958Z,12.10
2017-09-14T03:47:32.530Z,12.00
2017-09-14T03:49:59.985Z,11.90
2017-09-14T03:52:27.446Z,11.90
2017-09-14T03:54:54.893Z,11.90
2017-09-14T03:57:22.362Z,11.80
2017-09-14T03:59:49.805Z,11.70
2017-09-14T04:02:17.377Z,11.70
2017-09-14T04:04:44.825Z,11.70
2017-09-14T04:07:12.287Z,11.70
2017-09-14T04:09:39.742Z,11.70
2017-09-14T04:12:07.307Z,11.60
2017-09-14T04:14:34.754Z,11.70
2017-09-14T04:17:02.321Z,11.70
2017-09-14T04:19:30.633Z,11.70
2017-09-14T04:21:58.975Z,11.70
2017-09-14T04:24:26.429Z,11.60
2017-09-14T04:26:53.993Z,11.60
2017-09-14T04:29:21.449Z,11.60
2017-09-14T04:31:48.905Z,11.50
2017-09-14T04:34:16.363Z,11.50
2017-09-14T04:36:43.843Z,11.60
2017-09-14T04:39:11.299Z,11.60
2017-09-14T04:41:39.514Z,11.40
2017-09-14T04:44:07.001Z,11.40
2017-09-14T04:46:34.573Z,11.40
2017-09-14T04:49:02.044Z,11.50
2017-09-14T04:51:29.485Z,11.40
2017-09-14T04:53:56.948Z,11.40
2017-09-14T04:56:24.405Z,11.30
2017-09-14T04:58:51.953Z,11.30
2017-09-14T05:01:19.506Z,11.30
2017-09-14T05:03:47.773Z,11.20
2017-09-14T05:06:15.215Z,11.10
2017-09-14T05:08:42.669Z,11.10
2017-09-14T05:11:10.117Z,11.10
2017-09-14T05:13:37.578Z,11.20
2017-09-14T05:16:05.034Z,11.10
2017-09-14T05:18:32.495Z,11.10
2017-09-14T05:20:59.946Z,11.10
2017-09-14T05:23:27.401Z,11.20
2017-09-14T05:25:54.861Z,11.30
2017-09-14T05:28:23.092Z,11.30
2017-09-14T05:30:51.310Z,11.20
2017-09-14T05:33:18.782Z,11.20
2017-09-14T05:35:46.235Z,11.30
2017-09-14T05:38:13.689Z,11.30
2017-09-14T05:40:41.145Z,11.30
2017-09-14T05:43:08.590Z,11.30
2017-09-14T05:45:36.045Z,11.40
2017-09-14T05:48:03.604Z,11.40
2017-09-14T05:50:31.056Z,11.60
2017-09-14T05:52:58.511Z,11.50
2017-09-14T05:55:26.006Z,11.50
2017-09-14T05:57:53.462Z,11.50
2017-09-14T06:00:20.914Z,11.60
2017-09-14T06:02:48.371Z,11.60
2017-09-14T06:05:15.829Z,11.60
2017-09-14T06:07:43.288Z,11.50
2017-09-14T06:10:10.737Z,11.70
2017-09-14T06:12:38.199Z,11.60
2017-09-14T06:15:05.658Z,11.60
2017-09-14T06:17:33.214Z,11.70
2017-09-14T06:20:00.677Z,11.70
2017-09-14T06:22:28.131Z,11.70
2017-09-14T06:24:55.603Z,11.70
2017-09-14T06:27:23.049Z,11.70
2017-09-14T06:29:50.510Z,11.70
2017-09-14T06:32:18.721Z,11.80
2017-09-14T06:34:46.177Z,11.80
2017-09-14T06:37:14.407Z,11.90
2017-09-14T06:39:41.865Z,11.90
2017-09-14T06:42:09.417Z,11.90
2017-09-14T06:44:36.890Z,11.90
2017-09-14T06:47:04.348Z,11.80
2017-09-14T06:49:31.806Z,11.90
2017-09-14T06:51:59.267Z,11.90
2017-09-14T06:54:26.709Z,12.00
2017-09-14T06:56:54.166Z,12.00
2017-09-14T06:59:21.618Z,12.00
2017-09-14T07:01:49.161Z,12.10
2017-09-14T07:04:16.615Z,12.10
2017-09-14T07:06:44.075Z,12.20
2017-09-14T07:09:11.530Z,12.20
2017-09-14T07:11:38.989Z,12.30
2017-09-14T07:14:06.450Z,12.30
2017-09-14T07:16:33.906Z,12.30
2017-09-14T07:19:01.362Z,12.30
2017-09-14T07:21:28.818Z,12.30
2017-09-14T07:23:56.287Z,12.40
2017-09-14T07:26:23.842Z,12.40
2017-09-14T07:28:51.298Z,12.40
2017-09-14T07:31:18.758Z,12.30
2017-09-14T07:33:46.221Z,12.10
2017-09-14T07:36:13.674Z,12.00
2017-09-14T07:38:41.130Z,11.90
2017-09-14T07:41:08.579Z,11.90
2017-09-14T07:43:36.047Z,11.90
2017-09-14T07:46:03.607Z,11.90
2017-09-14T07:48:31.065Z,11.80
2017-09-14T07:50:58.519Z,11.70
2017-09-14T07:53:26.079Z,11.70
2017-09-14T07:55:53.539Z,11.60
2017-09-14T07:58:21.082Z,11.50
2017-09-14T08:00:48.535Z,11.50
2017-09-14T08:03:15.997Z,11.60
2017-09-14T08:05:43.464Z,11.60
2017-09-14T08:08:12.426Z,11.60
2017-09-14T08:10:39.878Z,11.60
2017-09-14T08:13:07.342Z,11.70
2017-09-14T08:15:34.789Z,11.80
2017-09-14T08:18:02.279Z,11.90
2017-09-14T08:20:29.730Z,11.90
2017-09-14T08:22:57.286Z,11.90
2017-09-14T08:25:24.738Z,12.00
2017-09-14T08:27:52.193Z,11.90
2017-09-14T08:30:19.641Z,11.80
2017-09-14T08:32:47.105Z,11.80
2017-09-14T08:35:14.552Z,11.80
2017-09-14T08:37:42.001Z,11.60
2017-09-14T08:40:09.454Z,11.70
2017-09-14T08:42:36.914Z,11.70
2017-09-14T08:45:04.396Z,11.70
2017-09-14T08:47:31.866Z,11.70
2017-09-14T08:49:59.335Z,11.70
2017-09-14T08:52:26.785Z,11.70
2017-09-14T08:54:54.241Z,11.70
2017-09-14T08:57:21.694Z,11.70
2017-09-14T08:59:49.145Z,11.70
2017-09-14T09:02:16.562Z,11.80
2017-09-14T09:04:44.045Z,11.90
2017-09-14T09:07:11.502Z,11.90
2017-09-14T09:09:38.959Z,12.00
2017-09-14T09:12:06.423Z,11.90
2017-09-14T09:14:33.869Z,12.00
2017-09-14T09:17:01.328Z,12.00
2017-09-14T09:19:28.781Z,12.00
2017-09-14T09:21:56.251Z,11.80
2017-09-14T09:24:23.801Z,11.70
2017-09-14T09:26:51.259Z,11.80
2017-09-14T09:29:18.715Z,11.80
2017-09-14T09:31:46.183Z,11.70
2017-09-14T09:34:13.625Z,11.70
2017-09-14T09:36:41.109Z,11.50
2017-09-14T09:39:08.562Z,11.50
2017-09-14T09:41:36.006Z,11.60
2017-09-14T09:44:03.462Z,11.70
2017-09-14T09:46:30.913Z,11.60
2017-09-14T09:48:58.379Z,11.60
2017-09-14T09:51:25.838Z,11.70
2017-09-14T09:53:53.299Z,11.70
2017-09-14T09:56:20.750Z,11.80
2017-09-14T09:58:48.210Z,11.70
2017-09-14T10:01:17.166Z,11.60
2017-09-14T10:03:44.618Z,11.60
2017-09-14T10:06:12.078Z,11.70
2017-09-14T10:08:39.542Z,11.60
2017-09-14T10:11:07.023Z,11.60
2017-09-14T10:13:34.577Z,11.50
2017-09-14T10:16:02.036Z,11.60
2017-09-14T10:18:29.497Z,11.70
2017-09-14T10:20:56.949Z,11.70
2017-09-14T10:23:24.399Z,11.60
2017-09-14T10:25:51.853Z,11.60
2017-09-14T10:28:19.303Z,11.70
2017-09-14T10:30:46.761Z,11.70
2017-09-14T10:33:14.213Z,11.80
2017-09-14T10:35:41.689Z,11.70
2017-09-14T10:38:09.146Z,11.60
2017-09-14T10:40:36.603Z,11.60
2017-09-14T10:43:04.050Z,11.50
2017-09-14T10:45:31.509Z,11.80
2017-09-14T10:47:58.961Z,11.70
2017-09-14T10:50:26.422Z,11.60
2017-09-14T10:52:53.877Z,11.60
2017-09-14T10:55:21.335Z,11.60
2017-09-14T10:57:48.791Z,11.50
2017-09-14T11:00:16.356Z,11.60
2017-09-14T11:02:43.913Z,11.60
2017-09-14T11:05:11.367Z,11.60
2017-09-14T11:07:38.829Z,11.70
2017-09-14T11:10:06.279Z,11.80
2017-09-14T11:12:33.746Z,11.90
2017-09-14T11:15:01.198Z,12.10
2017-09-14T11:17:28.763Z,12.20
2017-09-14T11:19:56.326Z,12.30
2017-09-14T11:22:23.786Z,12.60
2017-09-14T11:24:51.238Z,12.80
2017-09-14T11:27:18.690Z,13.00
2017-09-14T11:29:46.154Z,12.80
2017-09-14T11:32:13.613Z,12.60
2017-09-14T11:34:41.152Z,12.60
2017-09-14T11:37:08.706Z,12.40
2017-09-14T11:39:36.154Z,12.40
2017-09-14T11:42:03.610Z,12.40
2017-09-14T11:44:31.059Z,12.40
2017-09-14T11:46:58.518Z,12.30
2017-09-14T11:49:25.993Z,12.30
2017-09-14T11:51:53.448Z,12.30
2017-09-14T11:54:20.904Z,12.30
2017-09-14T11:56:48.364Z,12.30
2017-09-14T11:59:15.811Z,12.40
2017-09-14T12:01:43.266Z,12.60
2017-09-14T12:04:10.726Z,12.70
2017-09-14T12:06:38.174Z,12.80
2017-09-14T12:09:05.742Z,12.70
2017-09-14T12:11:33.302Z,12.70
2017-09-14T12:14:00.774Z,12.80
2017-09-14T12:16:28.222Z,12.80
2017-09-14T12:18:55.686Z,12.90
2017-09-14T12:21:23.130Z,12.90
2017-09-14T12:23:50.695Z,13.20
2017-09-14T12:26:18.151Z,13.40
2017-09-14T12:28:45.606Z,13.50
2017-09-14T12:31:13.094Z,13.40
2017-09-14T12:33:40.531Z,13.70
2017-09-14T12:36:07.982Z,13.80
2017-09-14T12:38:35.438Z,13.70
2017-09-14T12:41:02.886Z,13.50
2017-09-14T12:43:30.339Z,13.40
2017-09-14T12:45:57.794Z,13.40
2017-09-14T12:48:25.257Z,13.80
2017-09-14T12:50:52.709Z,13.80
2017-09-14T12:53:20.166Z,13.90
2017-09-14T12:55:47.621Z,13.60
2017-09-14T12:58:15.077Z,13.40
2017-09-14T13:00:42.542Z,13.40
2017-09-14T13:03:09.999Z,13.60
2017-09-14T13:05:37.464Z,13.80
2017-09-14T13:08:04.919Z,13.80
2017-09-14T13:10:32.374Z,13.90
2017-09-14T13:12:59.931Z,14.00
2017-09-14T13:15:27.384Z,14.10
2017-09-14T13:17:54.843Z,14.00
2017-09-14T13:20:22.309Z,14.00
2017-09-14T13:22:49.761Z,13.90
2017-09-14T13:25:17.225Z,13.60
2017-09-14T13:27:44.674Z,13.60
2017-09-14T13:30:12.137Z,14.10
2017-09-14T13:32:39.585Z,14.10
2017-09-14T13:35:07.133Z,14.00
2017-09-14T13:37:34.602Z,14.10
2017-09-14T13:40:02.049Z,14.00
2017-09-14T13:42:29.511Z,14.10
2017-09-14T13:44:57.066Z,14.20
2017-09-14T13:47:24.522Z,14.20
2017-09-14T13:49:51.969Z,14.20
2017-09-14T13:52:19.431Z,14.20
2017-09-14T13:54:46.988Z,14.30
2017-09-14T13:57:14.457Z,14.30
2017-09-14T13:59:41.977Z,14.40
2017-09-14T14:02:09.434Z,14.40
2017-09-14T14:04:36.884Z,14.30
2017-09-14T14:07:04.347Z,14.50
2017-09-14T14:09:31.793Z,14.00
2017-09-14T14:11:59.262Z,13.90
2017-09-14T14:14:26.701Z,13.80
2017-09-14T14:16:54.158Z,14.00
2017-09-14T14:19:21.731Z,14.10
2017-09-14T14:21:49.201Z,14.30
2017-09-14T14:24:16.655Z,14.40
2017-09-14T14:26:44.138Z,14.40
2017-09-14T14:29:11.602Z,14.30
2017-09-14T14:31:39.058Z,14.40
2017-09-14T14:34:06.514Z,14.50
2017-09-14T14:36:33.969Z,14.60
2017-09-14T14:39:01.434Z,14.70
2017-09-14T14:41:28.892Z,14.70
2017-09-14T14:43:56.362Z,14.70
2017-09-14T14:46:24.583Z,14.50
2017-09-14T14:48:52.038Z,14.50
2017-09-14T14:51:19.486Z,14.50
2017-09-14T14:53:46.943Z,14.50
2017-09-14T14:56:14.424Z,14.70
2017-09-14T14:58:41.877Z,14.80
2017-09-14T15:01:09.440Z,14.90
2017-09-14T15:03:36.893Z,14.80
2017-09-14T15:06:04.350Z,14.60
2017-09-14T15:08:31.800Z,14.50
2017-09-14T15:10:59.266Z,14.30
2017-09-14T15:13:26.731Z,14.50
2017-09-14T15:15:54.190Z,14.60
2017-09-14T15:18:21.660Z,14.70
2017-09-14T15:20:49.105Z,14.40
2017-09-14T15:23:16.570Z,14.20
2017-09-14T15:25:44.013Z,14.00
2017-09-14T15:28:11.472Z,13.80
2017-09-14T15:30:38.927Z,13.80
2017-09-14T15:33:06.476Z,13.80
2017-09-14T15:35:33.922Z,13.70
2017-09-14T15:38:01.491Z,13.30
2017-09-14T15:40:34.754Z,13.00
2017-09-14T15:43:07.826Z,12.90
2017-09-14T15:45:40.093Z,12.90
2017-09-14T15:48:13.125Z,13.20
2017-09-14T15:50:46.129Z,13.00
2017-09-14T15:53:13.597Z,12.70
2017-09-14T15:55:41.821Z,12.70
2017-09-14T15:58:09.307Z,12.60
2017-09-14T16:00:36.863Z,12.80
2017-09-14T16:03:04.317Z,12.80
2017-09-14T16:05:31.782Z,12.80
2017-09-14T16:07:59.238Z,12.80
2017-09-14T16:10:26.789Z,12.80
2017-09-14T16:12:54.351Z,12.90
2017-09-14T16:15:21.810Z,12.90
2017-09-14T16:17:49.257Z,12.90
2017-09-14T16:20:16.714Z,12.90
2017-09-14T16:22:44.161Z,12.80
2017-09-14T16:25:11.621Z,12.80
2017-09-14T16:27:39.069Z,12.80
2017-09-14T16:30:06.526Z,13.00
2017-09-14T16:32:33.977Z,12.80
2017-09-14T16:35:01.444Z,12.80
2017-09-14T16:37:28.898Z,12.80
2017-09-14T16:39:56.346Z,12.80
2017-09-14T16:42:23.810Z,12.60
2017-09-14T16:44:51.254Z,12.50
2017-09-14T16:47:18.725Z,12.50
2017-09-14T16:49:46.182Z,12.50
2017-09-14T16:52:13.761Z,12.30
2017-09-14T16:54:41.217Z,12.30
2017-09-14T16:57:08.685Z,12.30
2017-09-14T16:59:36.142Z,12.20
2017-09-14T17:02:03.603Z,12.10
2017-09-14T17:04:31.851Z,12.20
2017-09-14T17:06:59.314Z,12.10
2017-09-14T17:09:26.768Z,12.20
2017-09-14T17:11:54.225Z,12.40
2017-09-14T17:14:21.690Z,12.50
2017-09-14T17:16:49.156Z,12.60
2017-09-14T17:19:16.702Z,12.50
2017-09-14T17:21:44.166Z,12.40
2017-09-14T17:24:12.666Z,12.30
2017-09-14T17:26:40.895Z,12.30
2017-09-14T17:29:08.386Z,12.20
2017-09-14T17:31:35.833Z,12.20
2017-09-14T17:34:05.412Z,12.10
2017-09-14T17:36:33.905Z,11.90
2017-09-14T17:39:01.609Z,11.80
2017-09-14T17:41:29.830Z,11.60
2017-09-14T17:43:57.291Z,11.50
2017-09-14T17:46:24.750Z,11.50
2017-09-14T17:48:52.386Z,11.50
2017-09-14T17:51:19.832Z,11.60
2017-09-14T17:53:47.338Z,11.60
2017-09-14T17:56:14.781Z,11.60
2017-09-14T17:58:42.243Z,11.60
2017-09-14T18:01:09.694Z,11.70
2017-09-14T18:03:37.153Z,11.50
2017-09-14T18:06:04.626Z,11.40
2017-09-14T18:08:32.082Z,11.30
2017-09-14T18:11:00.298Z,11.60
2017-09-14T18:13:28.866Z,11.50
2017-09-14T18:16:01.097Z,11.60
2017-09-14T18:18:30.994Z,11.60
2017-09-14T18:20:59.306Z,11.60
2017-09-14T18:23:26.863Z,11.70
2017-09-14T18:25:54.420Z,11.80
2017-09-14T18:28:24.687Z,11.80
2017-09-14T18:30:52.257Z,11.90
2017-09-14T18:33:20.123Z,11.80
2017-09-14T18:35:47.598Z,11.70
2017-09-14T18:38:15.864Z,11.80
2017-09-14T18:40:43.351Z,11.80
2017-09-14T18:43:10.823Z,11.90
2017-09-14T18:45:39.106Z,12.10
2017-09-14T18:48:06.544Z,12.10
2017-09-14T18:50:33.997Z,12.20
2017-09-14T18:53:01.468Z,12.30
2017-09-14T18:55:30.397Z,12.30
2017-09-14T18:57:58.043Z,12.20
2017-09-14T19:00:26.875Z,12.20
2017-09-14T19:02:55.324Z,12.20
2017-09-14T19:05:22.770Z,12.10
2017-09-14T19:07:50.244Z,12.10
2017-09-14T19:10:17.706Z,12.20
2017-09-14T19:12:45.182Z,12.20
2017-09-14T19:15:12.650Z,12.10
2017-09-14T19:17:40.342Z,12.00
2017-09-14T19:20:08.559Z,11.80
2017-09-14T19:22:36.017Z,11.80
2017-09-14T19:25:03.472Z,11.90
2017-09-14T19:27:30.963Z,11.80
2017-09-14T19:29:58.427Z,11.80
2017-09-14T19:32:28.930Z,11.70
2017-09-14T19:34:59.626Z,11.80
2017-09-14T19:37:27.694Z,11.70
2017-09-14T19:39:55.161Z,11.70
2017-09-14T19:42:22.672Z,11.70
2017-09-14T19:44:50.265Z,11.60
2017-09-14T19:47:17.869Z,11.50
2017-09-14T19:49:45.354Z,11.60
2017-09-14T19:52:16.294Z,11.60
2017-09-14T19:54:44.009Z,11.70
2017-09-14T19:57:11.990Z,11.60
2017-09-14T19:59:41.403Z,11.60
2017-09-14T20:02:12.242Z,11.60
2017-09-14T20:04:39.706Z,11.60
2017-09-14T20:07:07.188Z,11.60
2017-09-14T20:09:34.667Z,11.80
2017-09-14T20:12:02.653Z,11.70
2017-09-14T20:14:30.105Z,11.80
2017-09-14T20:16:57.619Z,11.80
2017-09-14T20:19:25.153Z,11.70
2017-09-14T20:21:56.909Z,11.60
2017-09-14T20:24:24.349Z,11.70
2017-09-14T20:26:53.326Z,11.70
2017-09-14T20:29:20.824Z,11.80
2017-09-14T20:31:48.563Z,11.80
2017-09-14T20:34:16.018Z,11.80
2017-09-14T20:36:43.466Z,11.80
2017-09-14T20:39:10.918Z,11.90
2017-09-14T20:41:38.381Z,11.90
2017-09-14T20:44:05.925Z,12.00
2017-09-14T20:46:33.390Z,12.10
2017-09-14T20:49:00.846Z,12.10
2017-09-14T20:51:28.301Z,12.10
2017-09-14T20:53:55.754Z,12.10
2017-09-14T20:56:23.201Z,12.20
2017-09-14T20:58:50.666Z,12.20
2017-09-14T21:01:18.118Z,12.20
2017-09-14T21:03:45.582Z,12.20
2017-09-14T21:06:13.069Z,12.30
2017-09-14T21:08:40.527Z,12.30
2017-09-14T21:11:08.081Z,12.30
2017-09-14T21:13:35.643Z,12.30
2017-09-14T21:16:03.095Z,12.40
2017-09-14T21:18:30.555Z,12.50
2017-09-14T21:20:58.002Z,12.50
2017-09-14T21:23:25.465Z,12.40
2017-09-14T21:25:52.918Z,12.40
2017-09-14T21:28:20.373Z,12.40
2017-09-14T21:30:47.830Z,12.50
2017-09-14T21:33:15.273Z,12.60
2017-09-14T21:35:42.733Z,12.70
2017-09-14T21:38:10.188Z,12.50
2017-09-14T21:40:37.664Z,12.60
2017-09-14T21:43:05.105Z,12.70
2017-09-14T21:45:32.571Z,12.60
2017-09-14T21:48:00.022Z,12.50
2017-09-14T21:50:27.487Z,12.60
2017-09-14T21:52:54.937Z,12.70
2017-09-14T21:55:22.397Z,12.80
2017-09-14T21:57:49.853Z,12.70
2017-09-14T22:02:35.862Z,12.70
2017-09-14T22:05:03.329Z,12.70
2017-09-14T22:07:30.777Z,12.80
2017-09-14T22:09:58.233Z,12.80
2017-09-14T22:12:25.689Z,12.80
2017-09-14T22:14:53.159Z,12.70
2017-09-14T22:17:20.612Z,12.90
2017-09-14T22:19:48.081Z,12.80
2017-09-14T22:22:15.525Z,12.90
2017-09-14T22:24:42.981Z,12.90
2017-09-14T22:27:10.441Z,12.90
2017-09-14T22:29:37.885Z,12.90
2017-09-14T22:32:05.354Z,12.80
2017-09-14T22:34:32.806Z,12.80
2017-09-14T22:37:00.268Z,12.70
2017-09-14T22:39:27.726Z,12.80
2017-09-14T22:41:55.192Z,12.80
2017-09-14T22:44:22.647Z,12.80
2017-09-14T22:46:50.101Z,12.70
2017-09-14T22:49:17.549Z,12.70
2017-09-14T22:51:45.006Z,12.80
2017-09-14T22:54:12.457Z,12.80
2017-09-14T22:56:41.460Z,12.70
2017-09-14T22:59:09.005Z,12.70
2017-09-14T23:01:36.473Z,12.80
2017-09-14T23:04:03.934Z,12.70
2017-09-14T23:06:31.398Z,12.60
2017-09-14T23:08:59.614Z,12.60
2017-09-14T23:11:27.072Z,12.60
2017-09-14T23:13:54.535Z,12.70
2017-09-14T23:16:22.018Z,12.60
2017-09-14T23:18:49.604Z,12.70
2017-09-14T23:21:17.042Z,12.70
2017-09-14T23:23:44.593Z,12.60
2017-09-14T23:26:12.153Z,12.70
2017-09-14T23:28:39.613Z,12.60
2017-09-14T23:31:07.070Z,12.70
2017-09-14T23:33:34.526Z,12.80
2017-09-14T23:36:01.985Z,12.80
2017-09-14T23:38:29.450Z,12.80
2017-09-14T23:40:57.002Z,12.80
2017-09-14T23:43:24.461Z,12.80
2017-09-14T23:45:51.918Z,12.70
2017-09-14T23:48:19.389Z,12.60
2017-09-14T23:50:47.609Z,12.70
2017-09-14T23:53:15.058Z,12.70
2017-09-14T23:55:42.565Z,12.60
2017-09-14T23:58:10.005Z,12.60
